createdAt,value
2018-08-07T00:00:32.471Z,21.00
2018-08-07T00:03:01.257Z,20.95
2018-08-07T00:05:30.043Z,20.91
2018-08-07T00:07:59.189Z,20.92
2018-08-07T00:10:28.012Z,20.89
2018-08-07T00:12:56.834Z,20.89
2018-08-07T00:15:27.425Z,20.83
2018-08-07T00:17:56.220Z,20.84
2018-08-07T00:20:25.103Z,20.81
2018-08-07T00:22:53.957Z,20.80
2018-08-07T00:25:23.093Z,20.75
2018-08-07T00:27:51.937Z,20.75
2018-08-07T00:30:21.009Z,20.77
2018-08-07T00:32:50.194Z,20.80
2018-08-07T00:35:20.171Z,20.75
2018-08-07T00:37:49.511Z,20.71
2018-08-07T00:40:19.269Z,20.72
2018-08-07T00:42:48.686Z,20.66
2018-08-07T00:45:20.871Z,20.64
2018-08-07T00:47:50.251Z,20.59
2018-08-07T00:50:20.685Z,20.57
2018-08-07T00:52:50.390Z,20.56
2018-08-07T00:55:19.864Z,20.53
2018-08-07T00:57:49.303Z,20.51
2018-08-07T01:00:18.707Z,20.44
2018-08-07T01:02:47.848Z,20.39
2018-08-07T01:05:17.606Z,20.35
2018-08-07T01:07:46.793Z,20.36
2018-08-07T01:10:17.979Z,20.33
2018-08-07T01:12:47.195Z,20.29
2018-08-07T01:15:18.263Z,20.28
2018-08-07T01:17:47.482Z,20.25
2018-08-07T01:20:18.835Z,20.22
2018-08-07T01:22:47.557Z,20.18
2018-08-07T01:25:23.523Z,20.15
2018-08-07T01:27:52.352Z,20.14
2018-08-07T01:30:27.131Z,20.12
2018-08-07T01:32:56.381Z,20.09
2018-08-07T01:35:25.924Z,20.06
2018-08-07T01:37:54.725Z,20.04
2018-08-07T01:40:23.520Z,20.05
2018-08-07T01:42:52.239Z,20.05
2018-08-07T01:45:21.373Z,20.04
2018-08-07T01:47:50.230Z,20.03
2018-08-07T01:50:19.036Z,19.97
2018-08-07T01:52:47.795Z,19.94
2018-08-07T01:55:21.712Z,19.90
2018-08-07T01:57:50.613Z,19.95
2018-08-07T02:00:19.650Z,19.94
2018-08-07T02:02:48.955Z,19.97
2018-08-07T02:05:18.186Z,19.94
2018-08-07T02:07:47.052Z,19.89
2018-08-07T02:10:17.498Z,19.84
2018-08-07T02:12:46.255Z,19.84
2018-08-07T02:15:15.733Z,19.82
2018-08-07T02:17:44.502Z,19.78
2018-08-07T02:20:15.645Z,19.78
2018-08-07T02:22:45.006Z,19.72
2018-08-07T02:25:15.304Z,19.67
2018-08-07T02:27:45.020Z,19.70
2018-08-07T02:30:14.614Z,19.68
2018-08-07T02:32:43.432Z,19.65
2018-08-07T02:35:14.289Z,19.63
2018-08-07T02:37:44.280Z,19.67
2018-08-07T02:40:13.896Z,19.67
2018-08-07T02:42:43.069Z,19.67
2018-08-07T02:45:13.944Z,19.61
2018-08-07T02:47:43.631Z,19.62
2018-08-07T02:50:14.222Z,19.62
2018-08-07T02:52:43.119Z,19.62
2018-08-07T02:55:12.248Z,19.56
2018-08-07T02:57:42.166Z,19.53
2018-08-07T03:00:13.245Z,19.46
2018-08-07T03:02:42.059Z,19.38
2018-08-07T03:05:11.174Z,19.36
2018-08-07T03:07:40.694Z,19.36
2018-08-07T03:10:10.513Z,19.41
2018-08-07T03:12:39.597Z,19.38
2018-08-07T03:15:12.116Z,19.37
2018-08-07T03:17:41.178Z,19.32
2018-08-07T03:20:10.278Z,19.36
2018-08-07T03:22:39.176Z,19.31
2018-08-07T03:25:10.110Z,19.26
2018-08-07T03:27:38.917Z,19.24
2018-08-07T03:30:10.450Z,19.22
2018-08-07T03:32:39.370Z,19.27
2018-08-07T03:35:08.542Z,19.25
2018-08-07T03:37:38.355Z,19.29
2018-08-07T03:40:11.029Z,19.30
2018-08-07T03:42:39.958Z,19.24
2018-08-07T03:45:10.468Z,19.25
2018-08-07T03:47:39.342Z,19.26
2018-08-07T03:50:08.961Z,19.27
2018-08-07T03:52:38.050Z,19.31
2018-08-07T03:55:09.511Z,19.34
2018-08-07T03:57:38.693Z,19.42
2018-08-07T04:00:12.321Z,19.47
2018-08-07T04:02:41.298Z,19.52
2018-08-07T04:05:10.095Z,19.50
2018-08-07T04:07:39.221Z,19.52
2018-08-07T04:10:10.541Z,19.49
2018-08-07T04:12:39.665Z,19.56
2018-08-07T04:15:10.475Z,19.63
2018-08-07T04:17:39.359Z,19.71
2018-08-07T04:20:10.425Z,19.77
2018-08-07T04:22:39.201Z,19.79
2018-08-07T04:25:08.049Z,19.81
2018-08-07T04:27:37.479Z,19.88
2018-08-07T04:30:09.689Z,19.95
2018-08-07T04:32:39.345Z,19.95
2018-08-07T04:35:08.099Z,19.96
2018-08-07T04:37:37.020Z,19.97
2018-08-07T04:40:07.258Z,19.95
2018-08-07T04:42:37.285Z,20.12
2018-08-07T04:45:08.337Z,20.62
2018-08-07T04:47:37.218Z,21.44
2018-08-07T04:50:06.522Z,22.32
2018-08-07T04:52:35.513Z,22.95
2018-08-07T04:55:04.514Z,23.89
2018-08-07T04:57:33.361Z,24.75
2018-08-07T05:00:02.115Z,25.54
2018-08-07T05:02:30.982Z,26.23
2018-08-07T05:04:59.701Z,26.45
2018-08-07T05:07:28.492Z,26.73
2018-08-07T05:09:57.276Z,26.86
2018-08-07T05:12:26.130Z,27.21
2018-08-07T05:14:54.941Z,27.16
2018-08-07T05:17:23.769Z,27.42
2018-08-07T05:19:52.607Z,27.52
2018-08-07T05:22:21.353Z,27.76
2018-08-07T05:24:50.183Z,27.74
2018-08-07T05:27:18.987Z,27.74
2018-08-07T05:29:48.421Z,27.51
2018-08-07T05:32:17.757Z,27.18
2018-08-07T05:34:47.314Z,26.92
2018-08-07T05:37:16.469Z,26.32
2018-08-07T05:39:45.287Z,25.67
2018-08-07T05:42:14.453Z,25.35
2018-08-07T05:44:43.381Z,25.15
2018-08-07T05:47:12.223Z,24.98
2018-08-07T05:49:41.438Z,24.55
2018-08-07T05:52:10.374Z,24.34
2018-08-07T05:54:39.129Z,24.21
2018-08-07T05:57:08.622Z,24.17
2018-08-07T05:59:37.729Z,24.06
2018-08-07T06:02:06.573Z,24.14
2018-08-07T06:04:35.377Z,24.00
2018-08-07T06:07:04.290Z,23.92
2018-08-07T06:09:33.080Z,23.83
2018-08-07T06:12:01.952Z,23.99
2018-08-07T06:14:30.698Z,24.08
2018-08-07T06:16:59.961Z,23.99
2018-08-07T06:19:29.066Z,23.78
2018-08-07T06:21:58.227Z,23.79
2018-08-07T06:24:26.997Z,23.82
2018-08-07T06:26:55.842Z,23.82
2018-08-07T06:29:24.600Z,23.82
2018-08-07T06:31:53.397Z,23.83
2018-08-07T06:34:22.510Z,23.74
2018-08-07T06:36:51.242Z,23.71
2018-08-07T06:39:20.117Z,23.74
2018-08-07T06:41:49.610Z,23.78
2018-08-07T06:44:18.407Z,23.78
2018-08-07T06:46:47.500Z,23.80
2018-08-07T06:49:16.706Z,23.92
2018-08-07T06:51:45.522Z,23.92
2018-08-07T06:54:14.241Z,23.98
2018-08-07T06:56:43.069Z,24.01
2018-08-07T06:59:11.945Z,23.99
2018-08-07T07:01:40.778Z,23.91
2018-08-07T07:04:09.623Z,23.93
2018-08-07T07:06:38.402Z,24.01
2018-08-07T07:09:10.801Z,24.13
2018-08-07T07:11:39.666Z,24.11
2018-08-07T07:14:08.782Z,24.25
2018-08-07T07:16:37.755Z,24.24
2018-08-07T07:19:06.541Z,24.27
2018-08-07T07:21:35.343Z,24.39
2018-08-07T07:24:04.271Z,24.39
2018-08-07T07:26:33.067Z,24.41
2018-08-07T07:29:02.012Z,24.41
2018-08-07T07:31:30.746Z,24.49
2018-08-07T07:33:59.889Z,24.42
2018-08-07T07:36:28.723Z,24.47
2018-08-07T07:38:57.545Z,24.57
2018-08-07T07:41:26.385Z,24.68
2018-08-07T07:43:55.494Z,24.77
2018-08-07T07:46:24.334Z,24.79
2018-08-07T07:48:53.133Z,24.90
2018-08-07T07:51:21.911Z,25.02
2018-08-07T07:53:50.729Z,25.12
2018-08-07T07:56:19.530Z,25.19
2018-08-07T07:58:48.696Z,25.22
2018-08-07T08:01:17.626Z,25.26
2018-08-07T08:03:46.478Z,25.27
2018-08-07T08:06:15.646Z,25.31
2018-08-07T08:08:44.677Z,25.36
2018-08-07T08:11:13.899Z,25.42
2018-08-07T08:13:43.281Z,25.57
2018-08-07T08:16:12.790Z,25.64
2018-08-07T08:18:41.986Z,25.66
2018-08-07T08:21:10.735Z,25.73
2018-08-07T08:23:39.527Z,25.82
2018-08-07T08:26:08.412Z,25.95
2018-08-07T08:28:37.179Z,25.99
2018-08-07T08:31:06.022Z,25.97
2018-08-07T08:33:35.184Z,26.06
2018-08-07T08:36:03.945Z,26.09
2018-08-07T08:38:33.163Z,26.05
2018-08-07T08:41:02.060Z,26.16
2018-08-07T08:43:31.358Z,26.22
2018-08-07T08:46:00.191Z,26.21
2018-08-07T08:48:29.015Z,26.26
2018-08-07T08:50:57.820Z,26.28
2018-08-07T08:53:26.656Z,26.31
2018-08-07T08:55:55.500Z,26.37
2018-08-07T08:58:24.367Z,26.42
2018-08-07T09:00:53.152Z,26.56
2018-08-07T09:03:22.743Z,26.66
2018-08-07T09:05:51.541Z,26.70
2018-08-07T09:08:20.338Z,26.74
2018-08-07T09:10:49.176Z,26.77
2018-08-07T09:13:18.134Z,26.73
2018-08-07T09:15:46.926Z,26.84
2018-08-07T09:18:15.725Z,26.85
2018-08-07T09:20:44.518Z,26.91
2018-08-07T09:23:13.877Z,26.99
2018-08-07T09:25:42.754Z,27.08
2018-08-07T09:28:11.783Z,27.16
2018-08-07T09:30:40.616Z,27.28
2018-08-07T09:33:09.362Z,27.28
2018-08-07T09:35:38.152Z,27.30
2018-08-07T09:38:07.333Z,27.37
2018-08-07T09:40:36.535Z,27.35
2018-08-07T09:43:05.501Z,27.35
2018-08-07T09:45:35.605Z,27.37
2018-08-07T09:48:08.179Z,27.43
2018-08-07T09:50:37.478Z,27.49
2018-08-07T09:53:06.550Z,27.54
2018-08-07T09:55:35.465Z,27.69
2018-08-07T09:58:04.386Z,27.72
2018-08-07T10:00:39.918Z,27.61
2018-08-07T10:03:10.914Z,27.47
2018-08-07T10:05:39.957Z,27.53
2018-08-07T10:08:08.868Z,27.66
2018-08-07T10:10:37.736Z,27.68
2018-08-07T10:13:06.687Z,27.77
2018-08-07T10:15:35.840Z,27.90
2018-08-07T10:18:05.134Z,27.94
2018-08-07T10:20:34.303Z,27.87
2018-08-07T10:23:03.120Z,27.84
2018-08-07T10:25:33.069Z,27.97
2018-08-07T10:28:01.794Z,28.08
2018-08-07T10:30:31.000Z,28.20
2018-08-07T10:32:59.997Z,28.17
2018-08-07T10:35:29.257Z,28.18
2018-08-07T10:37:58.370Z,28.19
2018-08-07T10:40:28.148Z,28.32
2018-08-07T10:42:56.927Z,28.30
2018-08-07T10:45:26.767Z,28.29
2018-08-07T10:47:55.982Z,28.23
2018-08-07T10:50:26.600Z,28.23
2018-08-07T10:52:55.822Z,28.30
2018-08-07T10:55:25.407Z,28.38
2018-08-07T10:57:55.754Z,28.42
2018-08-07T11:00:27.790Z,28.49
2018-08-07T11:02:58.304Z,28.62
2018-08-07T11:05:28.022Z,28.79
2018-08-07T11:07:56.869Z,28.77
2018-08-07T11:10:26.896Z,28.79
2018-08-07T11:12:56.021Z,28.92
2018-08-07T11:15:29.349Z,28.84
2018-08-07T11:17:59.036Z,28.80
2018-08-07T11:20:28.205Z,28.82
2018-08-07T11:22:59.312Z,28.97
2018-08-07T11:25:28.963Z,29.00
2018-08-07T11:27:58.904Z,28.99
2018-08-07T11:30:28.846Z,28.96
2018-08-07T11:32:59.066Z,29.02
2018-08-07T11:35:28.359Z,28.98
2018-08-07T11:37:58.397Z,29.04
2018-08-07T11:40:27.478Z,29.00
2018-08-07T11:42:57.176Z,28.98
2018-08-07T11:45:27.847Z,28.99
2018-08-07T11:47:56.874Z,29.03
2018-08-07T11:50:27.069Z,29.16
2018-08-07T11:52:55.964Z,29.20
2018-08-07T11:55:25.437Z,29.15
2018-08-07T11:57:55.077Z,29.22
2018-08-07T12:00:26.090Z,29.28
2018-08-07T12:02:54.995Z,29.39
2018-08-07T12:05:24.129Z,29.38
2018-08-07T12:07:53.051Z,29.36
2018-08-07T12:10:22.244Z,29.31
2018-08-07T12:12:51.487Z,29.36
2018-08-07T12:15:24.523Z,29.47
2018-08-07T12:17:55.370Z,29.60
2018-08-07T12:20:24.187Z,29.55
2018-08-07T12:22:53.093Z,29.60
2018-08-07T12:25:22.264Z,29.53
2018-08-07T12:27:51.251Z,29.57
2018-08-07T12:30:23.160Z,29.63
2018-08-07T12:32:52.129Z,29.73
2018-08-07T12:35:21.021Z,29.84
2018-08-07T12:37:50.034Z,30.01
2018-08-07T12:40:23.844Z,29.97
2018-08-07T12:42:54.270Z,30.13
2018-08-07T12:45:23.037Z,30.28
2018-08-07T12:47:52.262Z,30.34
2018-08-07T12:50:21.035Z,30.46
2018-08-07T12:52:50.203Z,30.63
2018-08-07T12:55:20.734Z,30.68
2018-08-07T12:57:50.154Z,30.69
2018-08-07T13:00:20.743Z,30.83
2018-08-07T13:02:49.779Z,30.96
2018-08-07T13:05:18.627Z,31.13
2018-08-07T13:07:47.539Z,31.04
2018-08-07T13:10:17.735Z,30.63
2018-08-07T13:12:47.144Z,30.00
2018-08-07T13:15:17.682Z,29.74
2018-08-07T13:17:46.891Z,29.67
2018-08-07T13:20:16.134Z,29.31
2018-08-07T13:22:45.645Z,29.21
2018-08-07T13:25:18.853Z,28.94
2018-08-07T13:27:47.619Z,28.67
2018-08-07T13:30:20.184Z,28.49
2018-08-07T13:32:49.115Z,28.36
2018-08-07T13:35:18.421Z,28.30
2018-08-07T13:37:48.754Z,28.05
2018-08-07T13:40:18.915Z,27.94
2018-08-07T13:42:47.812Z,27.87
2018-08-07T13:45:18.697Z,27.81
2018-08-07T13:47:47.717Z,27.91
2018-08-07T13:50:18.018Z,27.97
2018-08-07T13:52:47.350Z,28.05
2018-08-07T13:55:17.453Z,28.11
2018-08-07T13:57:46.762Z,28.19
2018-08-07T14:00:22.751Z,28.40
2018-08-07T14:02:52.208Z,28.53
2018-08-07T14:05:21.634Z,28.42
2018-08-07T14:07:51.617Z,28.47
2018-08-07T14:10:21.476Z,28.48
2018-08-07T14:12:51.584Z,28.20
2018-08-07T14:15:21.285Z,28.08
2018-08-07T14:17:50.793Z,27.93
2018-08-07T14:20:20.164Z,27.89
2018-08-07T14:22:49.391Z,27.84
2018-08-07T14:25:20.784Z,27.91
2018-08-07T14:27:50.048Z,27.73
2018-08-07T14:30:21.269Z,27.63
2018-08-07T14:32:50.409Z,27.66
2018-08-07T14:35:19.377Z,27.42
2018-08-07T14:37:48.911Z,27.27
2018-08-07T14:40:18.969Z,27.25
2018-08-07T14:42:48.934Z,27.37
2018-08-07T14:45:20.837Z,27.67
2018-08-07T14:47:50.560Z,27.63
2018-08-07T14:50:20.938Z,27.72
2018-08-07T14:52:49.657Z,27.81
2018-08-07T14:55:18.695Z,27.61
2018-08-07T14:57:47.554Z,27.50
2018-08-07T15:00:22.475Z,27.46
2018-08-07T15:02:51.470Z,27.42
2018-08-07T15:05:20.197Z,27.45
2018-08-07T15:07:48.979Z,27.41
2018-08-07T15:10:21.293Z,27.21
2018-08-07T15:12:50.095Z,27.03
2018-08-07T15:15:21.487Z,27.06
2018-08-07T15:17:50.372Z,26.97
2018-08-07T15:20:20.795Z,27.03
2018-08-07T15:22:51.053Z,27.03
2018-08-07T15:25:20.612Z,26.96
2018-08-07T15:27:49.455Z,26.85
2018-08-07T15:30:21.567Z,26.85
2018-08-07T15:32:51.038Z,26.91
2018-08-07T15:35:21.229Z,26.96
2018-08-07T15:37:50.696Z,27.07
2018-08-07T15:40:19.949Z,27.07
2018-08-07T15:42:49.531Z,27.17
2018-08-07T15:45:20.413Z,27.16
2018-08-07T15:47:49.910Z,27.21
2018-08-07T15:50:19.577Z,27.14
2018-08-07T15:52:50.068Z,27.21
2018-08-07T15:55:21.290Z,27.24
2018-08-07T15:57:50.157Z,27.25
2018-08-07T16:00:26.061Z,27.24
2018-08-07T16:02:54.997Z,27.27
2018-08-07T16:05:23.848Z,27.31
2018-08-07T16:07:53.699Z,27.35
2018-08-07T16:10:23.018Z,27.39
2018-08-07T16:12:52.860Z,27.44
2018-08-07T16:15:21.799Z,27.38
2018-08-07T16:17:51.548Z,27.39
2018-08-07T16:20:21.258Z,27.39
2018-08-07T16:22:50.537Z,27.32
2018-08-07T16:25:20.396Z,27.26
2018-08-07T16:27:50.036Z,27.24
2018-08-07T16:30:27.116Z,27.25
2018-08-07T16:32:56.155Z,27.20
2018-08-07T16:35:24.937Z,27.13
2018-08-07T16:37:54.365Z,27.03
2018-08-07T16:40:24.363Z,26.97
2018-08-07T16:42:54.618Z,26.86
2018-08-07T16:45:24.363Z,26.78
2018-08-07T16:47:53.217Z,26.75
2018-08-07T16:50:24.953Z,26.77
2018-08-07T16:52:54.763Z,26.80
2018-08-07T16:55:25.492Z,26.83
2018-08-07T16:57:54.607Z,26.75
2018-08-07T17:00:23.831Z,26.69
2018-08-07T17:02:52.736Z,26.67
2018-08-07T17:05:22.073Z,26.68
2018-08-07T17:07:51.493Z,26.65
2018-08-07T17:10:22.945Z,26.62
2018-08-07T17:12:51.911Z,26.57
2018-08-07T17:15:20.882Z,26.51
2018-08-07T17:17:49.992Z,26.44
2018-08-07T17:20:20.302Z,26.38
2018-08-07T17:22:49.849Z,26.31
2018-08-07T17:25:19.966Z,26.31
2018-08-07T17:27:49.402Z,26.27
2018-08-07T17:30:20.246Z,26.23
2018-08-07T17:32:49.146Z,26.22
2018-08-07T17:35:20.297Z,26.15
2018-08-07T17:37:50.454Z,26.15
2018-08-07T17:40:20.862Z,26.11
2018-08-07T17:42:49.792Z,26.14
2018-08-07T17:45:19.186Z,26.16
2018-08-07T17:47:48.101Z,26.12
2018-08-07T17:50:19.261Z,26.07
2018-08-07T17:52:48.278Z,26.04
2018-08-07T17:55:17.257Z,26.00
2018-08-07T17:57:46.543Z,25.93
2018-08-07T18:00:17.516Z,25.90
2018-08-07T18:02:46.795Z,25.86
2018-08-07T18:05:15.756Z,25.81
2018-08-07T18:07:46.287Z,25.78
2018-08-07T18:10:17.500Z,25.76
2018-08-07T18:12:46.570Z,25.74
2018-08-07T18:15:16.584Z,25.71
2018-08-07T18:17:45.898Z,25.60
2018-08-07T18:20:17.855Z,25.57
2018-08-07T18:22:46.679Z,25.54
2018-08-07T18:25:15.902Z,25.51
2018-08-07T18:27:44.743Z,25.41
2018-08-07T18:30:15.319Z,25.35
2018-08-07T18:32:44.809Z,25.31
2018-08-07T18:35:16.328Z,25.28
2018-08-07T18:37:45.466Z,25.27
2018-08-07T18:40:14.329Z,25.23
2018-08-07T18:42:43.195Z,25.16
2018-08-07T18:45:13.744Z,25.08
2018-08-07T18:47:43.142Z,24.99
2018-08-07T18:50:22.613Z,24.97
2018-08-07T18:52:51.487Z,24.88
2018-08-07T18:55:20.382Z,24.82
2018-08-07T18:57:50.458Z,24.84
2018-08-07T19:00:20.868Z,24.76
2018-08-07T19:02:50.081Z,24.68
2018-08-07T19:05:20.509Z,24.61
2018-08-07T19:07:49.434Z,24.51
2018-08-07T19:10:18.226Z,24.47
2018-08-07T19:12:47.892Z,24.41
2018-08-07T19:15:17.672Z,24.36
2018-08-07T19:17:46.547Z,24.31
2018-08-07T19:20:18.783Z,24.29
2018-08-07T19:22:48.359Z,24.24
2018-08-07T19:25:17.681Z,24.19
2018-08-07T19:27:46.578Z,24.19
2018-08-07T19:30:17.344Z,24.17
2018-08-07T19:32:46.225Z,24.12
2018-08-07T19:35:15.230Z,24.09
2018-08-07T19:37:44.277Z,24.00
2018-08-07T19:40:15.396Z,23.94
2018-08-07T19:42:44.911Z,23.89
2018-08-07T19:45:13.977Z,23.91
2018-08-07T19:47:43.289Z,23.89
2018-08-07T19:50:13.849Z,23.86
2018-08-07T19:53:16.491Z,23.87
2018-08-07T19:55:45.610Z,23.85
2018-08-07T19:58:14.497Z,23.86
2018-08-07T20:00:43.429Z,23.87
2018-08-07T20:03:12.231Z,23.87
2018-08-07T20:05:41.249Z,23.89
2018-08-07T20:08:10.093Z,23.86
2018-08-07T20:10:39.127Z,23.78
2018-08-07T20:13:08.090Z,23.72
2018-08-07T20:15:36.901Z,23.68
2018-08-07T20:18:06.022Z,23.66
2018-08-07T20:20:34.833Z,23.61
2018-08-07T20:23:03.605Z,23.58
2018-08-07T20:25:32.413Z,23.52
2018-08-07T20:28:01.222Z,23.51
2018-08-07T20:30:30.360Z,23.45
2018-08-07T20:32:59.452Z,23.45
2018-08-07T20:35:28.281Z,23.39
2018-08-07T20:37:57.475Z,23.34
2018-08-07T20:40:27.683Z,23.35
2018-08-07T20:42:57.872Z,23.33
2018-08-07T20:45:26.795Z,23.29
2018-08-07T20:47:55.605Z,23.23
2018-08-07T20:50:25.779Z,23.24
2018-08-07T20:52:55.663Z,23.24
2018-08-07T20:55:24.594Z,23.25
2018-08-07T20:57:53.442Z,23.19
2018-08-07T21:00:24.565Z,23.17
2018-08-07T21:02:53.359Z,23.15
2018-08-07T21:05:22.545Z,23.15
2018-08-07T21:07:51.589Z,23.16
2018-08-07T21:10:25.252Z,23.18
2018-08-07T21:12:54.237Z,23.17
2018-08-07T21:15:23.101Z,23.12
2018-08-07T21:17:52.279Z,23.04
2018-08-07T21:20:22.086Z,23.04
2018-08-07T21:22:51.388Z,23.04
2018-08-07T21:25:22.602Z,23.07
2018-08-07T21:27:56.349Z,23.11
2018-08-07T21:30:26.961Z,23.07
2018-08-07T21:32:55.823Z,23.08
2018-08-07T21:35:24.633Z,23.12
2018-08-07T21:37:53.556Z,23.14
2018-08-07T21:40:24.073Z,23.16
2018-08-07T21:42:54.103Z,23.15
2018-08-07T21:45:23.672Z,23.06
2018-08-07T21:47:52.563Z,23.01
2018-08-07T21:50:23.291Z,22.97
2018-08-07T21:52:52.039Z,22.88
2018-08-07T21:55:21.560Z,22.85
2018-08-07T21:57:50.639Z,22.83
2018-08-07T22:00:37.928Z,22.78
2018-08-07T22:03:07.006Z,22.78
2018-08-07T22:05:35.954Z,22.77
2018-08-07T22:08:05.010Z,22.77
2018-08-07T22:10:33.853Z,22.73
2018-08-07T22:13:02.878Z,22.71
2018-08-07T22:15:31.777Z,22.69
2018-08-07T22:18:00.969Z,22.67
2018-08-07T22:20:30.137Z,22.61
2018-08-07T22:22:59.061Z,22.54
2018-08-07T22:25:28.361Z,22.49
2018-08-07T22:27:57.193Z,22.45
2018-08-07T22:30:26.473Z,22.39
2018-08-07T22:32:55.367Z,22.37
2018-08-07T22:35:24.551Z,22.36
2018-08-07T22:37:53.391Z,22.33
2018-08-07T22:40:22.213Z,22.32
2018-08-07T22:42:51.034Z,22.25
2018-08-07T22:45:19.939Z,22.21
2018-08-07T22:47:48.715Z,22.24
2018-08-07T22:50:18.711Z,22.17
2018-08-07T22:52:47.899Z,22.10
2018-08-07T22:55:18.097Z,22.12
2018-08-07T22:57:47.331Z,22.14
2018-08-07T23:00:18.168Z,22.10
2018-08-07T23:02:47.108Z,22.09
2018-08-07T23:05:17.061Z,22.13
2018-08-07T23:07:45.906Z,22.15
2018-08-07T23:10:21.201Z,22.14
2018-08-07T23:12:50.197Z,22.11
2018-08-07T23:15:20.569Z,22.16
2018-08-07T23:17:50.230Z,22.15
2018-08-07T23:20:20.785Z,22.11
2018-08-07T23:22:50.019Z,22.12
2018-08-07T23:25:18.785Z,21.95
2018-08-07T23:27:47.607Z,21.91
2018-08-07T23:30:23.236Z,21.86
2018-08-07T23:32:52.010Z,21.82
2018-08-07T23:35:20.844Z,21.82
2018-08-07T23:37:49.645Z,21.87
2018-08-07T23:40:18.814Z,21.90
2018-08-07T23:42:47.629Z,21.81
2018-08-07T23:45:16.726Z,21.75
2018-08-07T23:47:46.088Z,21.76
2018-08-07T23:50:15.240Z,21.76
2018-08-07T23:52:44.108Z,21.71
2018-08-07T23:55:12.941Z,21.70
2018-08-07T23:57:41.700Z,21.64
